Airport View

Enter AWOS ICAO identifier for current METAR.

ex. KFNL

KDIK 190556Z AUTO 19006KT 10SM CLR 03/M03 A3002 RMK AO2 SLP173 T00331028 10139 20006 58012

19 Apr 2019 06:18

Frequency: 118.375

Phone: 701-227-0280

Other Area AWOS: KD57 - KBWW - KHEI - K20U

TAF KDIK 190537Z 1906/2006 19006KT P6SM BKN090 FM191400 21012KT P6SM SCT200 FM191800 26014G24KT P6SM SCT250 FM192000 27020G30KT P6SM SCT250 FM200100 25008KT P6SM FEW250